Airfield :
LOGIN :

Register | Disclaimer

   EN    FR    IT 

 










Legend :    VFR   Marginal VFR   IFR   Intensive IFR   Very Intensive IFR
Visi :
Ceiling :
>= 8 km
>= 3000ft
5 to 8 km
1000 to 3000 ft
1500m to 5 km
500 to 1000 ft
800 to 1500m
200 to 500 ft
< 800m
< 200 ft
Symbols :   Thunderstorms  Fog  Heavy snow  Heavy precipitations  Wind > 20 kt
SIGMETs :     Misc.  Thunderstorms  Icing  Turbulence  Mountain Waves  Volcanic Ashes






- Airport Elevation : 226 ft
- IATA code : BEX


EGUB - RAF Benson

CURRENT METAR :
  • 272150Z 18007KT CAVOK 10/07 Q1017 NOSIG RMK BLU BLU

EXPIRED METARs :
  • 272120Z 18009KT CAVOK 11/08 Q1017 NOSIG RMK BLU BLU
  • 272050Z 18009KT CAVOK 11/08 Q1017 NOSIG RMK BLU BLU
  • 272020Z 18008KT CAVOK 11/08 Q1017 NOSIG RMK BLU BLU
  • 271950Z 19005KT CAVOK 10/07 Q1016 NOSIG RMK BLU BLU
  • 271920Z 19004KT CAVOK 10/07 Q1016 NOSIG RMK BLU BLU

TAF TAF EGUB
Valid from the 27 at 21:00 until the 28 at 01:00 UTC


271925Z 2721/2801 20008KT 9999 FEW040
ATIS : +44 1491-837766 (x7524)



MET'MAP, your aeronautical weather chart ! - Copyright ORBIFLY December 2007 - Disclaimer

ORBIFLY MET'MAP TEAM :

Programming & Development : Alexandra Zaïnal
Concept & original design : Baudouin d'Aumeries
Assistance for programming : Marc-Olivier Méhu
Technical & hardware support : Manuel Goepfert

Contact : metmap@orbifly.com




SOURCES & CREDITS :

   NOAA